sensor_id;sensor_type;location;lat;lon;timestamp;temperature;humidity
2453;DHT22;63678;47.994;7.854;2023-06-10T00:01:27;20.30;98.50
2453;DHT22;63678;47.994;7.854;2023-06-10T00:04:00;20.20;98.00
2453;DHT22;63678;47.994;7.854;2023-06-10T00:06:32;20.20;98.60
2453;DHT22;63678;47.994;7.854;2023-06-10T00:09:08;20.30;98.60
2453;DHT22;63678;47.994;7.854;2023-06-10T00:11:42;20.10;98.80
2453;DHT22;63678;47.994;7.854;2023-06-10T00:16:47;19.90;99.90
2453;DHT22;63678;47.994;7.854;2023-06-10T00:19:19;19.70;99.90
2453;DHT22;63678;47.994;7.854;2023-06-10T00:21:57;19.60;99.90
2453;DHT22;63678;47.994;7.854;2023-06-10T00:27:02;19.20;99.90
2453;DHT22;63678;47.994;7.854;2023-06-10T00:32:08;19.30;99.90
2453;DHT22;63678;47.994;7.854;2023-06-10T00:34:41;19.20;99.90
2453;DHT22;63678;47.994;7.854;2023-06-10T00:37:13;19.00;99.90
2453;DHT22;63678;47.994;7.854;2023-06-10T00:39:47;18.90;99.90
2453;DHT22;63678;47.994;7.854;2023-06-10T00:42:19;18.90;99.90
2453;DHT22;63678;47.994;7.854;2023-06-10T00:44:53;18.80;99.90
2453;DHT22;63678;47.994;7.854;2023-06-10T00:47:27;18.70;99.90
2453;DHT22;63678;47.994;7.854;2023-06-10T00:49:59;18.50;99.90
2453;DHT22;63678;47.994;7.854;2023-06-10T00:52:33;18.60;99.90
2453;DHT22;63678;47.994;7.854;2023-06-10T00:55:07;18.60;99.90
2453;DHT22;63678;47.994;7.854;2023-06-10T00:57:40;18.70;99.90
2453;DHT22;63678;47.994;7.854;2023-06-10T01:00:13;18.70;99.90
2453;DHT22;63678;47.994;7.854;2023-06-10T01:02:45;18.70;99.90
2453;DHT22;63678;47.994;7.854;2023-06-10T01:05:18;18.80;99.90
2453;DHT22;63678;47.994;7.854;2023-06-10T01:08:01;18.80;99.90
2453;DHT22;63678;47.994;7.854;2023-06-10T01:10:53;18.70;99.90
2453;DHT22;63678;47.994;7.854;2023-06-10T01:13:28;18.60;99.90
2453;DHT22;63678;47.994;7.854;2023-06-10T01:16:02;18.50;99.90
2453;DHT22;63678;47.994;7.854;2023-06-10T01:21:08;18.30;99.90
2453;DHT22;63678;47.994;7.854;2023-06-10T01:23:44;18.20;99.90
2453;DHT22;63678;47.994;7.854;2023-06-10T01:26:18;18.30;99.90
2453;DHT22;63678;47.994;7.854;2023-06-10T01:29:00;18.20;99.90
2453;DHT22;63678;47.994;7.854;2023-06-10T01:31:59;18.20;99.90
2453;DHT22;63678;47.994;7.854;2023-06-10T01:34:35;18.00;99.90
2453;DHT22;63678;47.994;7.854;2023-06-10T01:37:13;17.80;99.90
2453;DHT22;63678;47.994;7.854;2023-06-10T01:39:49;17.80;99.90
2453;DHT22;63678;47.994;7.854;2023-06-10T01:42:22;17.80;99.90
2453;DHT22;63678;47.994;7.854;2023-06-10T01:44:58;17.70;99.90
2453;DHT22;63678;47.994;7.854;2023-06-10T01:47:30;17.70;99.90
2453;DHT22;63678;47.994;7.854;2023-06-10T01:52:39;17.90;99.90
2453;DHT22;63678;47.994;7.854;2023-06-10T01:55:12;17.90;99.90
2453;DHT22;63678;47.994;7.854;2023-06-10T01:57:44;18.10;99.90
2453;DHT22;63678;47.994;7.854;2023-06-10T02:00:18;18.20;99.90
2453;DHT22;63678;47.994;7.854;2023-06-10T02:02:51;18.20;99.90
2453;DHT22;63678;47.994;7.854;2023-06-10T02:05:23;18.00;99.90
2453;DHT22;63678;47.994;7.854;2023-06-10T02:07:56;17.90;99.90
2453;DHT22;63678;47.994;7.854;2023-06-10T02:10:29;17.90;99.90
2453;DHT22;63678;47.994;7.854;2023-06-10T02:13:01;17.90;99.90
2453;DHT22;63678;47.994;7.854;2023-06-10T02:15:34;17.80;99.90
2453;DHT22;63678;47.994;7.854;2023-06-10T02:18:07;17.70;99.90
2453;DHT22;63678;47.994;7.854;2023-06-10T02:20:42;17.70;99.90
2453;DHT22;63678;47.994;7.854;2023-06-10T02:23:14;17.70;99.90
2453;DHT22;63678;47.994;7.854;2023-06-10T02:25:47;17.60;99.90
2453;DHT22;63678;47.994;7.854;2023-06-10T02:28:20;17.60;99.90
2453;DHT22;63678;47.994;7.854;2023-06-10T02:30:52;17.60;99.90
2453;DHT22;63678;47.994;7.854;2023-06-10T02:35:59;17.60;99.90
2453;DHT22;63678;47.994;7.854;2023-06-10T02:38:32;17.60;99.90
2453;DHT22;63678;47.994;7.854;2023-06-10T02:41:25;17.60;99.90
2453;DHT22;63678;47.994;7.854;2023-06-10T02:43:59;17.60;99.90
2453;DHT22;63678;47.994;7.854;2023-06-10T02:46:32;17.50;99.90
2453;DHT22;63678;47.994;7.854;2023-06-10T02:49:04;17.40;99.90
2453;DHT22;63678;47.994;7.854;2023-06-10T02:51:38;17.40;99.90
2453;DHT22;63678;47.994;7.854;2023-06-10T02:54:12;17.30;99.90
2453;DHT22;63678;47.994;7.854;2023-06-10T02:56:45;17.30;99.90
2453;DHT22;63678;47.994;7.854;2023-06-10T02:59:24;17.30;99.90
2453;DHT22;63678;47.994;7.854;2023-06-10T03:01:59;17.20;99.90
2453;DHT22;63678;47.994;7.854;2023-06-10T03:07:16;17.40;99.90
2453;DHT22;63678;47.994;7.854;2023-06-10T03:09:49;17.50;99.90
2453;DHT22;63678;47.994;7.854;2023-06-10T03:12:22;17.50;99.90
2453;DHT22;63678;47.994;7.854;2023-06-10T03:14:54;17.50;99.90
2453;DHT22;63678;47.994;7.854;2023-06-10T03:20:00;17.30;99.90
2453;DHT22;63678;47.994;7.854;2023-06-10T03:22:33;17.30;99.90
2453;DHT22;63678;47.994;7.854;2023-06-10T03:25:10;17.30;99.90
2453;DHT22;63678;47.994;7.854;2023-06-10T03:30:23;17.20;99.90
2453;DHT22;63678;47.994;7.854;2023-06-10T03:32:55;17.20;99.90
2453;DHT22;63678;47.994;7.854;2023-06-10T03:35:31;17.20;99.90
2453;DHT22;63678;47.994;7.854;2023-06-10T03:38:08;17.30;99.90
2453;DHT22;63678;47.994;7.854;2023-06-10T03:40:41;17.30;99.90
2453;DHT22;63678;47.994;7.854;2023-06-10T03:43:14;17.30;99.90
2453;DHT22;63678;47.994;7.854;2023-06-10T03:48:22;17.50;99.90
2453;DHT22;63678;47.994;7.854;2023-06-10T03:50:57;17.40;99.90
2453;DHT22;63678;47.994;7.854;2023-06-10T03:58:36;17.00;99.90
2453;DHT22;63678;47.994;7.854;2023-06-10T04:01:10;16.80;99.90
2453;DHT22;63678;47.994;7.854;2023-06-10T04:03:42;16.70;99.90
2453;DHT22;63678;47.994;7.854;2023-06-10T04:06:15;16.60;99.90
2453;DHT22;63678;47.994;7.854;2023-06-10T04:08:48;16.40;99.90
2453;DHT22;63678;47.994;7.854;2023-06-10T04:11:21;16.40;99.90
2453;DHT22;63678;47.994;7.854;2023-06-10T04:13:53;16.40;99.90
2453;DHT22;63678;47.994;7.854;2023-06-10T04:16:26;16.40;99.90
2453;DHT22;63678;47.994;7.854;2023-06-10T04:21:33;16.40;99.90
2453;DHT22;63678;47.994;7.854;2023-06-10T04:24:05;16.30;99.90
2453;DHT22;63678;47.994;7.854;2023-06-10T04:29:11;16.30;99.90
2453;DHT22;63678;47.994;7.854;2023-06-10T04:31:48;16.30;99.90
2453;DHT22;63678;47.994;7.854;2023-06-10T04:34:21;16.30;99.90
2453;DHT22;63678;47.994;7.854;2023-06-10T04:36:54;16.30;99.90
2453;DHT22;63678;47.994;7.854;2023-06-10T04:39:26;16.30;99.90
2453;DHT22;63678;47.994;7.854;2023-06-10T04:42:01;16.40;99.90
2453;DHT22;63678;47.994;7.854;2023-06-10T04:44:34;16.50;99.90
2453;DHT22;63678;47.994;7.854;2023-06-10T04:47:06;16.60;99.90
2453;DHT22;63678;47.994;7.854;2023-06-10T04:49:40;16.60;99.90
2453;DHT22;63678;47.994;7.854;2023-06-10T04:52:12;16.70;99.90
2453;DHT22;63678;47.994;7.854;2023-06-10T04:54:50;16.90;99.90
2453;DHT22;63678;47.994;7.854;2023-06-10T04:57:23;17.00;99.90
2453;DHT22;63678;47.994;7.854;2023-06-10T04:59:55;17.20;99.90
2453;DHT22;63678;47.994;7.854;2023-06-10T05:02:28;17.20;99.90
2453;DHT22;63678;47.994;7.854;2023-06-10T05:05:00;17.30;99.90
2453;DHT22;63678;47.994;7.854;2023-06-10T05:10:06;17.50;99.90
2453;DHT22;63678;47.994;7.854;2023-06-10T05:12:39;17.50;99.90
2453;DHT22;63678;47.994;7.854;2023-06-10T05:15:12;17.60;99.90
2453;DHT22;63678;47.994;7.854;2023-06-10T05:17:45;17.70;99.90
2453;DHT22;63678;47.994;7.854;2023-06-10T05:20:18;17.70;99.90
2453;DHT22;63678;47.994;7.854;2023-06-10T05:22:50;17.90;99.90
2453;DHT22;63678;47.994;7.854;2023-06-10T05:25:25;18.00;99.90
2453;DHT22;63678;47.994;7.854;2023-06-10T05:27:58;18.10;99.90
2453;DHT22;63678;47.994;7.854;2023-06-10T05:30:31;18.20;99.90
2453;DHT22;63678;47.994;7.854;2023-06-10T05:33:06;18.20;99.90
2453;DHT22;63678;47.994;7.854;2023-06-10T05:35:39;18.30;99.90
2453;DHT22;63678;47.994;7.854;2023-06-10T05:38:13;18.30;99.90
2453;DHT22;63678;47.994;7.854;2023-06-10T05:40:46;18.40;99.90
2453;DHT22;63678;47.994;7.854;2023-06-10T05:43:18;18.40;99.90
2453;DHT22;63678;47.994;7.854;2023-06-10T05:45:51;18.50;99.90
2453;DHT22;63678;47.994;7.854;2023-06-10T05:48:24;18.60;99.90
2453;DHT22;63678;47.994;7.854;2023-06-10T05:50:56;18.60;99.90
2453;DHT22;63678;47.994;7.854;2023-06-10T05:53:29;18.70;99.90
2453;DHT22;63678;47.994;7.854;2023-06-10T05:56:01;18.70;99.90
2453;DHT22;63678;47.994;7.854;2023-06-10T05:58:34;18.70;99.90
2453;DHT22;63678;47.994;7.854;2023-06-10T06:01:07;18.70;99.90
2453;DHT22;63678;47.994;7.854;2023-06-10T06:03:40;18.80;99.90
2453;DHT22;63678;47.994;7.854;2023-06-10T06:14:32;19.20;99.90
2453;DHT22;63678;47.994;7.854;2023-06-10T06:19:38;19.50;99.90
2453;DHT22;63678;47.994;7.854;2023-06-10T06:22:10;19.70;99.90
2453;DHT22;63678;47.994;7.854;2023-06-10T06:24:43;19.80;99.90
2453;DHT22;63678;47.994;7.854;2023-06-10T06:27:16;19.90;99.90
2453;DHT22;63678;47.994;7.854;2023-06-10T06:29:48;20.20;99.90
2453;DHT22;63678;47.994;7.854;2023-06-10T06:37:32;25.40;99.90
2453;DHT22;63678;47.994;7.854;2023-06-10T06:40:18;27.40;99.60
2453;DHT22;63678;47.994;7.854;2023-06-10T06:42:50;28.90;97.10
2453;DHT22;63678;47.994;7.854;2023-06-10T06:45:33;28.80;95.70
2453;DHT22;63678;47.994;7.854;2023-06-10T06:48:06;29.20;94.90
2453;DHT22;63678;47.994;7.854;2023-06-10T06:50:38;29.20;94.50
2453;DHT22;63678;47.994;7.854;2023-06-10T06:53:32;29.40;93.90
2453;DHT22;63678;47.994;7.854;2023-06-10T06:56:25;29.60;94.10
2453;DHT22;63678;47.994;7.854;2023-06-10T06:59:00;29.50;93.10
2453;DHT22;63678;47.994;7.854;2023-06-10T07:01:33;29.20;93.20
2453;DHT22;63678;47.994;7.854;2023-06-10T07:04:25;29.20;93.40
2453;DHT22;63678;47.994;7.854;2023-06-10T07:06:58;29.30;93.20
2453;DHT22;63678;47.994;7.854;2023-06-10T07:09:49;29.90;92.50
2453;DHT22;63678;47.994;7.854;2023-06-10T07:12:21;30.50;91.60
2453;DHT22;63678;47.994;7.854;2023-06-10T07:14:56;30.30;91.80
2453;DHT22;63678;47.994;7.854;2023-06-10T07:17:29;29.90;92.00
2453;DHT22;63678;47.994;7.854;2023-06-10T07:20:02;29.30;92.70
2453;DHT22;63678;47.994;7.854;2023-06-10T07:22:35;29.40;92.50
2453;DHT22;63678;47.994;7.854;2023-06-10T07:25:07;29.60;92.40
2453;DHT22;63678;47.994;7.854;2023-06-10T07:27:41;29.90;92.20
2453;DHT22;63678;47.994;7.854;2023-06-10T07:30:13;29.40;92.30
2453;DHT22;63678;47.994;7.854;2023-06-10T07:32:46;29.50;92.50
2453;DHT22;63678;47.994;7.854;2023-06-10T07:35:18;30.10;92.10
2453;DHT22;63678;47.994;7.854;2023-06-10T07:37:51;30.60;91.70
2453;DHT22;63678;47.994;7.854;2023-06-10T07:40:24;30.70;91.40
2453;DHT22;63678;47.994;7.854;2023-06-10T07:42:56;30.80;91.50
2453;DHT22;63678;47.994;7.854;2023-06-10T07:45:32;31.40;91.10
2453;DHT22;63678;47.994;7.854;2023-06-10T07:48:04;32.40;90.00
2453;DHT22;63678;47.994;7.854;2023-06-10T07:50:37;32.80;89.10
2453;DHT22;63678;47.994;7.854;2023-06-10T07:55:42;33.30;86.60
2453;DHT22;63678;47.994;7.854;2023-06-10T07:58:14;32.80;87.00
2453;DHT22;63678;47.994;7.854;2023-06-10T08:00:47;32.10;87.40
2453;DHT22;63678;47.994;7.854;2023-06-10T08:03:20;31.80;88.10
2453;DHT22;63678;47.994;7.854;2023-06-10T08:05:53;32.30;87.40
2453;DHT22;63678;47.994;7.854;2023-06-10T08:08:25;31.50;88.60
2453;DHT22;63678;47.994;7.854;2023-06-10T08:10:58;31.30;89.00
2453;DHT22;63678;47.994;7.854;2023-06-10T08:13:30;31.30;89.30
2453;DHT22;63678;47.994;7.854;2023-06-10T08:16:04;31.80;88.50
2453;DHT22;63678;47.994;7.854;2023-06-10T08:18:36;31.90;88.40
2453;DHT22;63678;47.994;7.854;2023-06-10T08:23:41;31.30;89.50
2453;DHT22;63678;47.994;7.854;2023-06-10T08:26:14;31.10;89.50
2453;DHT22;63678;47.994;7.854;2023-06-10T08:31:19;30.80;90.10
2453;DHT22;63678;47.994;7.854;2023-06-10T08:33:52;31.40;89.70
2453;DHT22;63678;47.994;7.854;2023-06-10T08:36:24;32.10;88.40
2453;DHT22;63678;47.994;7.854;2023-06-10T08:41:35;31.80;88.30
2453;DHT22;63678;47.994;7.854;2023-06-10T08:44:16;32.50;87.60
2453;DHT22;63678;47.994;7.854;2023-06-10T08:46:53;33.20;85.90
2453;DHT22;63678;47.994;7.854;2023-06-10T08:49:30;32.50;86.50
2453;DHT22;63678;47.994;7.854;2023-06-10T08:52:07;31.70;88.00
2453;DHT22;63678;47.994;7.854;2023-06-10T08:55:12;31.10;89.30
2453;DHT22;63678;47.994;7.854;2023-06-10T08:57:47;32.30;87.30
2453;DHT22;63678;47.994;7.854;2023-06-10T09:00:20;32.40;87.80
2453;DHT22;63678;47.994;7.854;2023-06-10T09:02:54;32.40;87.30
2453;DHT22;63678;47.994;7.854;2023-06-10T09:05:28;31.40;88.30
2453;DHT22;63678;47.994;7.854;2023-06-10T09:08:01;31.40;89.20
2453;DHT22;63678;47.994;7.854;2023-06-10T09:10:34;31.90;87.80
2453;DHT22;63678;47.994;7.854;2023-06-10T09:13:07;33.00;87.30
2453;DHT22;63678;47.994;7.854;2023-06-10T09:15:40;33.80;85.50
2453;DHT22;63678;47.994;7.854;2023-06-10T09:18:13;34.00;84.00
2453;DHT22;63678;47.994;7.854;2023-06-10T09:20:46;34.30;84.80
2453;DHT22;63678;47.994;7.854;2023-06-10T09:23:19;32.70;85.60
2453;DHT22;63678;47.994;7.854;2023-06-10T09:25:58;32.70;86.00
2453;DHT22;63678;47.994;7.854;2023-06-10T09:28:30;31.80;87.60
2453;DHT22;63678;47.994;7.854;2023-06-10T09:31:04;32.30;86.80
2453;DHT22;63678;47.994;7.854;2023-06-10T09:33:39;31.40;87.00
2453;DHT22;63678;47.994;7.854;2023-06-10T09:36:21;31.40;87.30
2453;DHT22;63678;47.994;7.854;2023-06-10T09:38:56;31.10;87.20
2453;DHT22;63678;47.994;7.854;2023-06-10T09:41:32;30.80;87.70
2453;DHT22;63678;47.994;7.854;2023-06-10T09:44:17;31.90;86.60
2453;DHT22;63678;47.994;7.854;2023-06-10T09:46:52;32.40;86.70
2453;DHT22;63678;47.994;7.854;2023-06-10T09:50:05;32.20;86.50
2453;DHT22;63678;47.994;7.854;2023-06-10T09:53:00;32.10;86.60
2453;DHT22;63678;47.994;7.854;2023-06-10T09:58:09;32.30;86.20
2453;DHT22;63678;47.994;7.854;2023-06-10T10:00:41;32.90;85.70
2453;DHT22;63678;47.994;7.854;2023-06-10T10:03:22;33.00;86.20
2453;DHT22;63678;47.994;7.854;2023-06-10T10:05:59;33.20;85.70
2453;DHT22;63678;47.994;7.854;2023-06-10T10:08:32;33.20;86.00
2453;DHT22;63678;47.994;7.854;2023-06-10T10:13:38;32.60;86.10
2453;DHT22;63678;47.994;7.854;2023-06-10T10:16:12;31.80;86.80
2453;DHT22;63678;47.994;7.854;2023-06-10T10:18:54;31.10;88.00
2453;DHT22;63678;47.994;7.854;2023-06-10T10:21:32;31.40;88.40
2453;DHT22;63678;47.994;7.854;2023-06-10T10:24:17;32.10;86.90
2453;DHT22;63678;47.994;7.854;2023-06-10T10:26:52;32.40;85.60
2453;DHT22;63678;47.994;7.854;2023-06-10T10:29:31;32.10;86.20
2453;DHT22;63678;47.994;7.854;2023-06-10T10:32:12;32.00;86.90
2453;DHT22;63678;47.994;7.854;2023-06-10T10:35:08;32.70;86.00
2453;DHT22;63678;47.994;7.854;2023-06-10T10:37:41;32.70;85.00
2453;DHT22;63678;47.994;7.854;2023-06-10T10:40:14;32.70;85.40
2453;DHT22;63678;47.994;7.854;2023-06-10T10:42:48;31.70;85.90
2453;DHT22;63678;47.994;7.854;2023-06-10T10:45:21;30.90;87.20
2453;DHT22;63678;47.994;7.854;2023-06-10T10:47:55;30.10;88.30
2453;DHT22;63678;47.994;7.854;2023-06-10T10:50:29;30.20;89.20
2453;DHT22;63678;47.994;7.854;2023-06-10T10:53:05;30.60;88.90
2453;DHT22;63678;47.994;7.854;2023-06-10T10:55:38;31.00;87.70
2453;DHT22;63678;47.994;7.854;2023-06-10T10:58:13;31.20;87.90
2453;DHT22;63678;47.994;7.854;2023-06-10T11:00:49;32.00;86.50
2453;DHT22;63678;47.994;7.854;2023-06-10T11:05:57;31.40;86.60
2453;DHT22;63678;47.994;7.854;2023-06-10T11:11:25;31.00;85.90
2453;DHT22;63678;47.994;7.854;2023-06-10T11:16:43;30.30;87.00
2453;DHT22;63678;47.994;7.854;2023-06-10T11:19:35;29.60;87.90
2453;DHT22;63678;47.994;7.854;2023-06-10T11:22:08;29.30;88.60
2453;DHT22;63678;47.994;7.854;2023-06-10T11:24:52;29.30;88.80
2453;DHT22;63678;47.994;7.854;2023-06-10T11:35:08;28.70;90.40
2453;DHT22;63678;47.994;7.854;2023-06-10T11:37:41;28.90;89.40
2453;DHT22;63678;47.994;7.854;2023-06-10T11:40:13;29.10;89.50
2453;DHT22;63678;47.994;7.854;2023-06-10T11:42:46;29.60;89.20
2453;DHT22;63678;47.994;7.854;2023-06-10T11:45:18;30.20;87.60
2453;DHT22;63678;47.994;7.854;2023-06-10T11:47:59;28.60;85.60
2453;DHT22;63678;47.994;7.854;2023-06-10T11:50:33;30.70;86.40
2453;DHT22;63678;47.994;7.854;2023-06-10T11:53:08;30.80;86.10
2453;DHT22;63678;47.994;7.854;2023-06-10T11:55:47;30.80;86.50
2453;DHT22;63678;47.994;7.854;2023-06-10T12:00:56;31.00;85.10
2453;DHT22;63678;47.994;7.854;2023-06-10T12:03:37;31.20;85.20
2453;DHT22;63678;47.994;7.854;2023-06-10T12:06:10;31.90;83.20
2453;DHT22;63678;47.994;7.854;2023-06-10T12:08:43;31.00;83.40
2453;DHT22;63678;47.994;7.854;2023-06-10T12:11:16;31.10;83.30
2453;DHT22;63678;47.994;7.854;2023-06-10T12:13:50;31.70;83.60
2453;DHT22;63678;47.994;7.854;2023-06-10T12:16:25;32.10;83.00
2453;DHT22;63678;47.994;7.854;2023-06-10T12:19:03;32.00;82.70
2453;DHT22;63678;47.994;7.854;2023-06-10T12:21:36;31.30;83.50
2453;DHT22;63678;47.994;7.854;2023-06-10T12:24:10;30.60;84.60
2453;DHT22;63678;47.994;7.854;2023-06-10T12:26:44;30.00;84.80
2453;DHT22;63678;47.994;7.854;2023-06-10T12:29:22;29.50;85.70
2453;DHT22;63678;47.994;7.854;2023-06-10T12:32:00;29.10;86.70
2453;DHT22;63678;47.994;7.854;2023-06-10T12:34:38;29.00;87.60
2453;DHT22;63678;47.994;7.854;2023-06-10T12:37:12;28.80;87.20
2453;DHT22;63678;47.994;7.854;2023-06-10T12:39:51;28.80;88.40
2453;DHT22;63678;47.994;7.854;2023-06-10T12:42:25;28.30;89.40
2453;DHT22;63678;47.994;7.854;2023-06-10T12:44:58;28.10;89.10
2453;DHT22;63678;47.994;7.854;2023-06-10T12:47:35;29.80;91.60
2453;DHT22;63678;47.994;7.854;2023-06-10T12:52:44;26.20;99.90
2453;DHT22;63678;47.994;7.854;2023-06-10T12:55:17;25.40;99.90
2453;DHT22;63678;47.994;7.854;2023-06-10T12:57:50;25.00;99.90
2453;DHT22;63678;47.994;7.854;2023-06-10T13:00:22;24.50;99.90
2453;DHT22;63678;47.994;7.854;2023-06-10T13:03:00;24.40;99.90
2453;DHT22;63678;47.994;7.854;2023-06-10T13:05:34;24.40;99.90
2453;DHT22;63678;47.994;7.854;2023-06-10T13:08:10;24.80;99.90
2453;DHT22;63678;47.994;7.854;2023-06-10T13:13:15;24.00;99.90
2453;DHT22;63678;47.994;7.854;2023-06-10T13:15:48;23.80;99.90
2453;DHT22;63678;47.994;7.854;2023-06-10T13:20:54;24.20;99.90
2453;DHT22;63678;47.994;7.854;2023-06-10T13:23:27;24.30;99.90
2453;DHT22;63678;47.994;7.854;2023-06-10T13:36:15;24.80;99.90
2453;DHT22;63678;47.994;7.854;2023-06-10T13:41:21;24.60;99.90
2453;DHT22;63678;47.994;7.854;2023-06-10T13:43:53;24.90;99.90
2453;DHT22;63678;47.994;7.854;2023-06-10T13:51:35;25.90;99.90
2453;DHT22;63678;47.994;7.854;2023-06-10T13:54:08;26.00;99.90
2453;DHT22;63678;47.994;7.854;2023-06-10T13:56:40;26.30;99.90
2453;DHT22;63678;47.994;7.854;2023-06-10T14:01:48;27.30;99.90
2453;DHT22;63678;47.994;7.854;2023-06-10T14:04:20;27.90;99.90
2453;DHT22;63678;47.994;7.854;2023-06-10T14:06:53;28.40;99.90
2453;DHT22;63678;47.994;7.854;2023-06-10T14:09:26;28.20;99.90
2453;DHT22;63678;47.994;7.854;2023-06-10T14:14:31;29.40;97.60
2453;DHT22;63678;47.994;7.854;2023-06-10T14:17:05;29.70;98.10
2453;DHT22;63678;47.994;7.854;2023-06-10T14:19:37;29.60;97.50
2453;DHT22;63678;47.994;7.854;2023-06-10T14:22:12;29.70;98.60
2453;DHT22;63678;47.994;7.854;2023-06-10T14:24:44;29.30;98.40
2453;DHT22;63678;47.994;7.854;2023-06-10T14:27:17;29.10;99.30
2453;DHT22;63678;47.994;7.854;2023-06-10T14:29:49;29.10;98.40
2453;DHT22;63678;47.994;7.854;2023-06-10T14:32:22;28.70;97.80
2453;DHT22;63678;47.994;7.854;2023-06-10T14:34:54;28.70;98.60
2453;DHT22;63678;47.994;7.854;2023-06-10T14:37:27;28.40;99.50
2453;DHT22;63678;47.994;7.854;2023-06-10T14:39:59;28.30;99.50
2453;DHT22;63678;47.994;7.854;2023-06-10T14:45:06;28.00;99.90
2453;DHT22;63678;47.994;7.854;2023-06-10T14:47:39;27.80;99.90
2453;DHT22;63678;47.994;7.854;2023-06-10T14:52:45;27.60;99.90
2453;DHT22;63678;47.994;7.854;2023-06-10T14:55:17;27.90;99.90
2453;DHT22;63678;47.994;7.854;2023-06-10T14:57:49;28.10;99.20
2453;DHT22;63678;47.994;7.854;2023-06-10T15:00:22;28.60;98.50
2453;DHT22;63678;47.994;7.854;2023-06-10T15:02:56;29.10;98.10
2453;DHT22;63678;47.994;7.854;2023-06-10T15:05:30;29.50;96.00
2453;DHT22;63678;47.994;7.854;2023-06-10T15:08:02;29.70;95.90
2453;DHT22;63678;47.994;7.854;2023-06-10T15:10:35;29.80;95.40
2453;DHT22;63678;47.994;7.854;2023-06-10T15:13:08;29.60;94.10
2453;DHT22;63678;47.994;7.854;2023-06-10T15:15:40;29.30;93.80
2453;DHT22;63678;47.994;7.854;2023-06-10T15:18:13;30.40;95.00
2453;DHT22;63678;47.994;7.854;2023-06-10T15:20:45;28.80;94.60
2453;DHT22;63678;47.994;7.854;2023-06-10T15:23:18;28.70;95.30
2453;DHT22;63678;47.994;7.854;2023-06-10T15:25:50;28.50;95.60
2453;DHT22;63678;47.994;7.854;2023-06-10T15:30:59;28.30;96.80
2453;DHT22;63678;47.994;7.854;2023-06-10T15:33:34;28.20;96.20
2453;DHT22;63678;47.994;7.854;2023-06-10T15:36:06;28.30;96.40
2453;DHT22;63678;47.994;7.854;2023-06-10T15:38:39;28.30;96.80
2453;DHT22;63678;47.994;7.854;2023-06-10T15:41:12;28.20;96.30
2453;DHT22;63678;47.994;7.854;2023-06-10T15:43:45;28.00;97.30
2453;DHT22;63678;47.994;7.854;2023-06-10T15:46:18;27.80;96.80
2453;DHT22;63678;47.994;7.854;2023-06-10T15:48:50;27.60;97.70
2453;DHT22;63678;47.994;7.854;2023-06-10T15:51:23;27.60;98.10
2453;DHT22;63678;47.994;7.854;2023-06-10T15:56:50;27.60;98.20
2453;DHT22;63678;47.994;7.854;2023-06-10T15:59:22;27.70;98.00
2453;DHT22;63678;47.994;7.854;2023-06-10T16:01:55;27.70;98.00
2453;DHT22;63678;47.994;7.854;2023-06-10T16:04:27;27.80;97.70
2453;DHT22;63678;47.994;7.854;2023-06-10T16:06:59;27.70;97.10
2453;DHT22;63678;47.994;7.854;2023-06-10T16:09:32;27.70;97.40
2453;DHT22;63678;47.994;7.854;2023-06-10T16:12:05;27.60;97.80
2453;DHT22;63678;47.994;7.854;2023-06-10T16:14:37;27.50;98.40
2453;DHT22;63678;47.994;7.854;2023-06-10T16:17:10;27.50;97.60
2453;DHT22;63678;47.994;7.854;2023-06-10T16:19:43;27.40;98.10
2453;DHT22;63678;47.994;7.854;2023-06-10T16:24:48;27.30;97.70
2453;DHT22;63678;47.994;7.854;2023-06-10T16:27:21;27.30;98.40
2453;DHT22;63678;47.994;7.854;2023-06-10T16:32:26;27.40;98.30
2453;DHT22;63678;47.994;7.854;2023-06-10T16:35:00;27.40;98.30
2453;DHT22;63678;47.994;7.854;2023-06-10T16:37:32;27.50;98.10
2453;DHT22;63678;47.994;7.854;2023-06-10T16:40:05;27.90;97.70
2453;DHT22;63678;47.994;7.854;2023-06-10T16:45:11;28.50;96.30
2453;DHT22;63678;47.994;7.854;2023-06-10T16:47:43;28.70;96.50
2453;DHT22;63678;47.994;7.854;2023-06-10T16:50:16;28.60;97.00
2453;DHT22;63678;47.994;7.854;2023-06-10T16:52:48;28.70;96.80
2453;DHT22;63678;47.994;7.854;2023-06-10T16:55:21;28.60;96.40
2453;DHT22;63678;47.994;7.854;2023-06-10T16:57:54;28.50;96.70
2453;DHT22;63678;47.994;7.854;2023-06-10T17:03:00;28.50;97.40
2453;DHT22;63678;47.994;7.854;2023-06-10T17:05:33;28.40;96.80
2453;DHT22;63678;47.994;7.854;2023-06-10T17:08:05;28.30;96.90
2453;DHT22;63678;47.994;7.854;2023-06-10T17:10:38;28.20;96.80
2453;DHT22;63678;47.994;7.854;2023-06-10T17:13:11;28.20;96.30
2453;DHT22;63678;47.994;7.854;2023-06-10T17:15:43;28.20;97.80
2453;DHT22;63678;47.994;7.854;2023-06-10T17:18:16;28.20;97.10
2453;DHT22;63678;47.994;7.854;2023-06-10T17:20:48;27.90;99.00
2453;DHT22;63678;47.994;7.854;2023-06-10T17:23:21;27.60;99.80
2453;DHT22;63678;47.994;7.854;2023-06-10T17:25:53;27.50;99.90
2453;DHT22;63678;47.994;7.854;2023-06-10T17:28:25;27.30;99.90
2453;DHT22;63678;47.994;7.854;2023-06-10T17:30:58;28.60;99.90
2453;DHT22;63678;47.994;7.854;2023-06-10T17:33:34;26.90;99.90
2453;DHT22;63678;47.994;7.854;2023-06-10T17:36:08;27.00;99.90
2453;DHT22;63678;47.994;7.854;2023-06-10T17:41:13;26.50;99.90
2453;DHT22;63678;47.994;7.854;2023-06-10T17:43:45;26.40;99.90
2453;DHT22;63678;47.994;7.854;2023-06-10T17:46:18;26.30;99.90
2453;DHT22;63678;47.994;7.854;2023-06-10T17:48:50;26.10;99.90
2453;DHT22;63678;47.994;7.854;2023-06-10T17:51:22;26.00;99.90
2453;DHT22;63678;47.994;7.854;2023-06-10T17:53:55;25.90;99.90
2453;DHT22;63678;47.994;7.854;2023-06-10T17:56:27;26.00;99.90
2453;DHT22;63678;47.994;7.854;2023-06-10T17:58:59;26.00;99.90
2453;DHT22;63678;47.994;7.854;2023-06-10T18:01:32;26.10;99.90
2453;DHT22;63678;47.994;7.854;2023-06-10T18:04:05;26.00;99.90
2453;DHT22;63678;47.994;7.854;2023-06-10T18:06:38;25.80;99.90
2453;DHT22;63678;47.994;7.854;2023-06-10T18:09:11;25.80;99.90
2453;DHT22;63678;47.994;7.854;2023-06-10T18:16:49;25.60;99.90
2453;DHT22;63678;47.994;7.854;2023-06-10T18:21:54;25.60;99.90
2453;DHT22;63678;47.994;7.854;2023-06-10T18:24:26;25.70;99.90
2453;DHT22;63678;47.994;7.854;2023-06-10T18:26:58;25.60;99.90
2453;DHT22;63678;47.994;7.854;2023-06-10T18:32:04;25.40;99.90
2453;DHT22;63678;47.994;7.854;2023-06-10T18:34:38;25.50;99.90
2453;DHT22;63678;47.994;7.854;2023-06-10T18:37:10;25.50;99.90
2453;DHT22;63678;47.994;7.854;2023-06-10T18:39:43;25.40;99.90
2453;DHT22;63678;47.994;7.854;2023-06-10T18:42:15;25.30;99.90
2453;DHT22;63678;47.994;7.854;2023-06-10T18:44:47;25.20;99.90
2453;DHT22;63678;47.994;7.854;2023-06-10T18:49:52;25.20;99.90
2453;DHT22;63678;47.994;7.854;2023-06-10T18:52:25;25.00;99.90
2453;DHT22;63678;47.994;7.854;2023-06-10T18:54:57;24.90;99.90
2453;DHT22;63678;47.994;7.854;2023-06-10T19:00:03;24.80;99.90
2453;DHT22;63678;47.994;7.854;2023-06-10T19:02:36;24.80;99.90
2453;DHT22;63678;47.994;7.854;2023-06-10T19:05:09;24.70;99.90
2453;DHT22;63678;47.994;7.854;2023-06-10T19:12:50;24.30;99.90